sensor_id;sensor_type;location;lat;lon;timestamp;pressure;altitude;pressure_sealevel;temperature;humidity
64402;BME280;50724;42.376;23.768;2023-08-30T00:00:55;92291.00;;;18.17;76.46
64402;BME280;50724;42.376;23.768;2023-08-30T00:03:56;92289.03;;;18.24;76.22
64402;BME280;50724;42.376;23.768;2023-08-30T00:06:56;92280.41;;;18.17;76.43
64402;BME280;50724;42.376;23.768;2023-08-30T00:09:58;92273.84;;;18.31;76.15
64402;BME280;50724;42.376;23.768;2023-08-30T00:12:58;92278.91;;;18.44;75.81
64402;BME280;50724;42.376;23.768;2023-08-30T00:15:59;92272.81;;;18.56;75.12
64402;BME280;50724;42.376;23.768;2023-08-30T00:19:01;92267.28;;;18.45;75.64
64402;BME280;50724;42.376;23.768;2023-08-30T00:22:01;92269.91;;;18.57;75.05
64402;BME280;50724;42.376;23.768;2023-08-30T00:25:02;92266.25;;;18.46;75.41
64402;BME280;50724;42.376;23.768;2023-08-30T00:28:02;92266.94;;;18.42;75.78
64402;BME280;50724;42.376;23.768;2023-08-30T00:31:03;92271.31;;;18.36;76.34
64402;BME280;50724;42.376;23.768;2023-08-30T00:34:03;92265.13;;;18.31;76.93
64402;BME280;50724;42.376;23.768;2023-08-30T00:37:04;92270.41;;;18.31;76.89
64402;BME280;50724;42.376;23.768;2023-08-30T00:40:05;92278.81;;;18.28;76.95
64402;BME280;50724;42.376;23.768;2023-08-30T00:43:07;92273.53;;;18.16;77.10
64402;BME280;50724;42.376;23.768;2023-08-30T00:46:08;92276.06;;;18.11;77.60
64402;BME280;50724;42.376;23.768;2023-08-30T00:49:08;92273.41;;;18.11;77.22
64402;BME280;50724;42.376;23.768;2023-08-30T00:52:09;92272.84;;;18.09;77.56
64402;BME280;50724;42.376;23.768;2023-08-30T00:55:10;92283.31;;;17.93;78.18
64402;BME280;50724;42.376;23.768;2023-08-30T00:58:20;92283.19;;;17.76;79.05
64402;BME280;50724;42.376;23.768;2023-08-30T01:01:21;92284.00;;;17.88;78.88
64402;BME280;50724;42.376;23.768;2023-08-30T01:04:22;92285.97;;;18.16;79.03
64402;BME280;50724;42.376;23.768;2023-08-30T01:07:23;92294.59;;;18.86;75.81
64402;BME280;50724;42.376;23.768;2023-08-30T01:14:04;92306.38;;;19.35;73.84
64402;BME280;50724;42.376;23.768;2023-08-30T01:17:08;92318.44;;;19.26;74.04
64402;BME280;50724;42.376;23.768;2023-08-30T01:20:10;92318.38;;;19.09;74.81
64402;BME280;50724;42.376;23.768;2023-08-30T01:26:47;92317.66;;;18.74;75.45
64402;BME280;50724;42.376;23.768;2023-08-30T01:29:53;92315.63;;;18.64;75.58
64402;BME280;50724;42.376;23.768;2023-08-30T01:32:54;92308.06;;;18.56;76.42
64402;BME280;50724;42.376;23.768;2023-08-30T01:35:59;92310.47;;;18.46;76.66
64402;BME280;50724;42.376;23.768;2023-08-30T01:39:00;92318.16;;;18.13;78.41
64402;BME280;50724;42.376;23.768;2023-08-30T01:42:01;92319.22;;;18.12;79.16
64402;BME280;50724;42.376;23.768;2023-08-30T01:45:03;92324.25;;;18.36;77.68
64402;BME280;50724;42.376;23.768;2023-08-30T01:48:14;92322.63;;;17.77;79.44
64402;BME280;50724;42.376;23.768;2023-08-30T01:51:16;92318.56;;;17.52;81.14
64402;BME280;50724;42.376;23.768;2023-08-30T01:54:18;92312.47;;;17.51;81.54
64402;BME280;50724;42.376;23.768;2023-08-30T01:57:19;92312.16;;;17.59;81.11
64402;BME280;50724;42.376;23.768;2023-08-30T02:00:19;92314.22;;;17.57;81.24
64402;BME280;50724;42.376;23.768;2023-08-30T02:03:20;92305.84;;;17.60;81.74
64402;BME280;50724;42.376;23.768;2023-08-30T02:06:28;92308.75;;;17.41;82.15
64402;BME280;50724;42.376;23.768;2023-08-30T02:09:40;92311.44;;;17.23;83.32
64402;BME280;50724;42.376;23.768;2023-08-30T02:12:50;92307.53;;;17.13;83.45
64402;BME280;50724;42.376;23.768;2023-08-30T02:15:55;92315.25;;;16.97;84.69
64402;BME280;50724;42.376;23.768;2023-08-30T02:18:57;92312.47;;;16.92;85.71
64402;BME280;50724;42.376;23.768;2023-08-30T02:21:57;92315.84;;;16.99;85.82
64402;BME280;50724;42.376;23.768;2023-08-30T02:24:59;92321.94;;;16.99;85.94
64402;BME280;50724;42.376;23.768;2023-08-30T02:28:01;92316.66;;;16.99;86.41
64402;BME280;50724;42.376;23.768;2023-08-30T02:31:02;92321.78;;;16.94;85.59
64402;BME280;50724;42.376;23.768;2023-08-30T02:34:03;92332.06;;;16.84;85.75
64402;BME280;50724;42.376;23.768;2023-08-30T02:37:03;92338.25;;;16.78;85.91
64402;BME280;50724;42.376;23.768;2023-08-30T02:40:04;92330.53;;;16.95;86.50
64402;BME280;50724;42.376;23.768;2023-08-30T02:43:05;92316.66;;;16.99;86.85
64402;BME280;50724;42.376;23.768;2023-08-30T02:46:05;92309.25;;;16.72;86.83
64402;BME280;50724;42.376;23.768;2023-08-30T02:49:06;92305.13;;;16.64;87.55
64402;BME280;50724;42.376;23.768;2023-08-30T02:52:06;92302.69;;;16.63;88.18
64402;BME280;50724;42.376;23.768;2023-08-30T02:55:07;92291.38;;;16.74;87.54
64402;BME280;50724;42.376;23.768;2023-08-30T02:58:07;92293.72;;;16.45;89.28
64402;BME280;50724;42.376;23.768;2023-08-30T03:01:07;92290.81;;;16.54;88.68
64402;BME280;50724;42.376;23.768;2023-08-30T03:04:08;92290.94;;;16.40;88.82
64402;BME280;50724;42.376;23.768;2023-08-30T03:07:08;92291.59;;;16.36;89.20
64402;BME280;50724;42.376;23.768;2023-08-30T03:10:09;92295.03;;;16.36;89.54
64402;BME280;50724;42.376;23.768;2023-08-30T03:13:10;92300.38;;;16.30;89.54
64402;BME280;50724;42.376;23.768;2023-08-30T03:16:14;92307.06;;;16.32;90.74
64402;BME280;50724;42.376;23.768;2023-08-30T03:19:15;92304.72;;;16.42;90.14
64402;BME280;50724;42.376;23.768;2023-08-30T03:22:17;92314.66;;;16.22;91.55
64402;BME280;50724;42.376;23.768;2023-08-30T03:25:17;92315.19;;;16.13;91.13
64402;BME280;50724;42.376;23.768;2023-08-30T03:28:18;92316.38;;;15.92;91.39
64402;BME280;50724;42.376;23.768;2023-08-30T03:31:19;92318.69;;;16.07;90.48
64402;BME280;50724;42.376;23.768;2023-08-30T03:34:20;92308.78;;;16.02;91.29
64402;BME280;50724;42.376;23.768;2023-08-30T03:37:20;92317.22;;;16.11;92.29
64402;BME280;50724;42.376;23.768;2023-08-30T03:40:21;92316.22;;;16.12;91.51
64402;BME280;50724;42.376;23.768;2023-08-30T03:43:21;92316.28;;;16.05;91.67
64402;BME280;50724;42.376;23.768;2023-08-30T03:46:22;92318.25;;;15.92;92.06
64402;BME280;50724;42.376;23.768;2023-08-30T03:49:23;92321.78;;;15.79;92.71
64402;BME280;50724;42.376;23.768;2023-08-30T03:52:23;92324.19;;;15.80;93.29
64402;BME280;50724;42.376;23.768;2023-08-30T03:55:23;92313.00;;;15.85;93.03
64402;BME280;50724;42.376;23.768;2023-08-30T03:58:24;92314.78;;;15.91;92.71
64402;BME280;50724;42.376;23.768;2023-08-30T04:01:24;92316.34;;;15.99;92.17
64402;BME280;50724;42.376;23.768;2023-08-30T04:04:25;92324.25;;;15.99;91.61
64402;BME280;50724;42.376;23.768;2023-08-30T04:07:25;92315.84;;;16.08;91.72
64402;BME280;50724;42.376;23.768;2023-08-30T04:10:26;92315.13;;;16.01;91.31
64402;BME280;50724;42.376;23.768;2023-08-30T04:13:26;92318.34;;;16.03;91.77
64402;BME280;50724;42.376;23.768;2023-08-30T04:16:26;92318.09;;;16.05;91.85
64402;BME280;50724;42.376;23.768;2023-08-30T04:19:27;92323.84;;;16.20;91.28
64402;BME280;50724;42.376;23.768;2023-08-30T04:22:27;92335.66;;;16.35;90.99
64402;BME280;50724;42.376;23.768;2023-08-30T04:25:29;92336.28;;;16.56;90.10
64402;BME280;50724;42.376;23.768;2023-08-30T04:28:29;92345.06;;;16.86;88.72
64402;BME280;50724;42.376;23.768;2023-08-30T04:31:29;92332.22;;;17.19;87.46
64402;BME280;50724;42.376;23.768;2023-08-30T04:34:30;92344.69;;;17.60;85.16
64402;BME280;50724;42.376;23.768;2023-08-30T04:37:31;92343.31;;;17.57;84.23
64402;BME280;50724;42.376;23.768;2023-08-30T04:40:34;92343.09;;;17.82;83.82
64402;BME280;50724;42.376;23.768;2023-08-30T04:43:34;92342.59;;;18.61;80.69
64402;BME280;50724;42.376;23.768;2023-08-30T04:46:35;92345.88;;;19.59;76.01
64402;BME280;50724;42.376;23.768;2023-08-30T04:49:35;92348.03;;;19.62;75.58
64402;BME280;50724;42.376;23.768;2023-08-30T04:52:36;92365.13;;;20.16;74.37
64402;BME280;50724;42.376;23.768;2023-08-30T04:55:36;92382.84;;;20.99;70.90
64402;BME280;50724;42.376;23.768;2023-08-30T04:58:36;92380.56;;;21.72;67.50
64402;BME280;50724;42.376;23.768;2023-08-30T05:01:37;92381.63;;;22.25;64.86
64402;BME280;50724;42.376;23.768;2023-08-30T05:04:39;92381.56;;;22.83;61.95
64402;BME280;50724;42.376;23.768;2023-08-30T05:07:39;92388.47;;;22.47;62.50
64402;BME280;50724;42.376;23.768;2023-08-30T05:10:40;92392.19;;;22.46;62.79
64402;BME280;50724;42.376;23.768;2023-08-30T05:13:40;92393.50;;;23.22;60.95
64402;BME280;50724;42.376;23.768;2023-08-30T05:16:41;92391.22;;;22.94;60.47
64402;BME280;50724;42.376;23.768;2023-08-30T05:19:41;92393.50;;;22.76;61.43
64402;BME280;50724;42.376;23.768;2023-08-30T05:22:42;92391.66;;;21.86;64.83
64402;BME280;50724;42.376;23.768;2023-08-30T05:25:42;92387.94;;;21.65;66.41
64402;BME280;50724;42.376;23.768;2023-08-30T05:28:42;92398.31;;;21.18;67.70
64402;BME280;50724;42.376;23.768;2023-08-30T05:31:43;92400.91;;;20.25;69.48
64402;BME280;50724;42.376;23.768;2023-08-30T05:34:44;92405.72;;;19.83;72.14
64402;BME280;50724;42.376;23.768;2023-08-30T05:37:44;92402.25;;;19.66;73.31
64402;BME280;50724;42.376;23.768;2023-08-30T05:40:45;92407.88;;;19.42;75.09
64402;BME280;50724;42.376;23.768;2023-08-30T05:43:45;92412.78;;;19.10;77.74
64402;BME280;50724;42.376;23.768;2023-08-30T05:46:46;92408.44;;;18.81;78.68
64402;BME280;50724;42.376;23.768;2023-08-30T05:49:46;92401.53;;;18.91;78.48
64402;BME280;50724;42.376;23.768;2023-08-30T05:52:46;92391.72;;;18.92;77.79
64402;BME280;50724;42.376;23.768;2023-08-30T05:55:47;92404.97;;;19.03;78.06
64402;BME280;50724;42.376;23.768;2023-08-30T05:58:47;92402.81;;;19.40;78.38
64402;BME280;50724;42.376;23.768;2023-08-30T06:01:48;92404.75;;;19.73;77.23
64402;BME280;50724;42.376;23.768;2023-08-30T06:04:48;92394.47;;;19.93;76.70
64402;BME280;50724;42.376;23.768;2023-08-30T06:07:49;92399.63;;;19.83;77.00
64402;BME280;50724;42.376;23.768;2023-08-30T06:10:49;92394.50;;;20.10;75.44
64402;BME280;50724;42.376;23.768;2023-08-30T06:13:49;92383.09;;;20.42;73.27
64402;BME280;50724;42.376;23.768;2023-08-30T06:16:50;92386.63;;;20.65;72.43
64402;BME280;50724;42.376;23.768;2023-08-30T06:19:50;92401.84;;;21.24;70.22
64402;BME280;50724;42.376;23.768;2023-08-30T06:22:51;92408.38;;;21.60;68.89
64402;BME280;50724;42.376;23.768;2023-08-30T06:25:56;92411.09;;;21.65;66.93
64402;BME280;50724;42.376;23.768;2023-08-30T06:28:57;92411.81;;;22.04;66.51
64402;BME280;50724;42.376;23.768;2023-08-30T06:31:58;92405.13;;;22.33;64.63
64402;BME280;50724;42.376;23.768;2023-08-30T06:34:59;92417.28;;;22.50;63.06
64402;BME280;50724;42.376;23.768;2023-08-30T06:37:59;92411.97;;;22.50;61.17
64402;BME280;50724;42.376;23.768;2023-08-30T06:41:00;92427.66;;;22.79;59.74
64402;BME280;50724;42.376;23.768;2023-08-30T06:44:00;92417.69;;;22.64;60.48
64402;BME280;50724;42.376;23.768;2023-08-30T06:47:01;92408.34;;;23.03;58.61
64402;BME280;50724;42.376;23.768;2023-08-30T06:50:10;92410.47;;;23.48;55.80
64402;BME280;50724;42.376;23.768;2023-08-30T06:53:10;92415.84;;;23.53;56.43
64402;BME280;50724;42.376;23.768;2023-08-30T06:56:11;92410.09;;;23.30;55.34
64402;BME280;50724;42.376;23.768;2023-08-30T06:59:11;92411.00;;;23.50;56.06
64402;BME280;50724;42.376;23.768;2023-08-30T07:02:12;92405.41;;;23.47;53.48
64402;BME280;50724;42.376;23.768;2023-08-30T07:05:13;92404.19;;;23.79;52.99
64402;BME280;50724;42.376;23.768;2023-08-30T07:08:14;92393.44;;;23.59;52.96
64402;BME280;50724;42.376;23.768;2023-08-30T07:11:15;92401.84;;;23.98;53.38
64402;BME280;50724;42.376;23.768;2023-08-30T07:14:15;92402.97;;;24.12;52.03
64402;BME280;50724;42.376;23.768;2023-08-30T07:17:16;92400.56;;;24.21;51.33
64402;BME280;50724;42.376;23.768;2023-08-30T07:20:17;92400.31;;;24.47;51.85
64402;BME280;50724;42.376;23.768;2023-08-30T07:23:17;92402.19;;;24.52;51.15
64402;BME280;50724;42.376;23.768;2023-08-30T07:26:17;92401.69;;;24.80;51.05
64402;BME280;50724;42.376;23.768;2023-08-30T07:29:18;92401.13;;;24.88;49.29
64402;BME280;50724;42.376;23.768;2023-08-30T07:32:18;92400.88;;;24.90;49.63
64402;BME280;50724;42.376;23.768;2023-08-30T07:35:27;92398.44;;;24.68;49.48
64402;BME280;50724;42.376;23.768;2023-08-30T07:38:27;92395.75;;;24.98;49.72
64402;BME280;50724;42.376;23.768;2023-08-30T07:41:28;92398.34;;;25.39;48.62
64402;BME280;50724;42.376;23.768;2023-08-30T07:44:28;92396.97;;;25.56;47.33
64402;BME280;50724;42.376;23.768;2023-08-30T07:47:29;92405.59;;;25.48;47.30
64402;BME280;50724;42.376;23.768;2023-08-30T07:50:29;92400.59;;;24.76;49.37
64402;BME280;50724;42.376;23.768;2023-08-30T07:53:30;92401.13;;;25.03;49.32
64402;BME280;50724;42.376;23.768;2023-08-30T07:56:30;92396.28;;;24.65;49.12
64402;BME280;50724;42.376;23.768;2023-08-30T07:59:39;92397.38;;;24.79;49.06
64402;BME280;50724;42.376;23.768;2023-08-30T08:02:40;92405.06;;;25.31;48.08
64402;BME280;50724;42.376;23.768;2023-08-30T08:05:41;92402.28;;;25.66;46.95
64402;BME280;50724;42.376;23.768;2023-08-30T08:08:41;92406.03;;;25.65;47.14
64402;BME280;50724;42.376;23.768;2023-08-30T08:11:41;92409.53;;;25.66;46.65
64402;BME280;50724;42.376;23.768;2023-08-30T08:14:43;92408.25;;;26.07;45.29
64402;BME280;50724;42.376;23.768;2023-08-30T08:17:44;92407.63;;;26.30;45.15
64402;BME280;50724;42.376;23.768;2023-08-30T08:20:44;92397.56;;;26.46;44.62
64402;BME280;50724;42.376;23.768;2023-08-30T08:23:44;92407.06;;;26.28;44.97
64402;BME280;50724;42.376;23.768;2023-08-30T08:26:47;92404.28;;;26.00;45.16
64402;BME280;50724;42.376;23.768;2023-08-30T08:29:47;92414.63;;;26.21;44.39
64402;BME280;50724;42.376;23.768;2023-08-30T08:32:48;92400.19;;;26.17;44.74
64402;BME280;50724;42.376;23.768;2023-08-30T08:35:49;92403.66;;;26.18;44.88
64402;BME280;50724;42.376;23.768;2023-08-30T08:38:50;92399.16;;;26.86;43.29
64402;BME280;50724;42.376;23.768;2023-08-30T08:41:51;92389.91;;;27.25;42.61
64402;BME280;50724;42.376;23.768;2023-08-30T08:44:54;92387.13;;;27.12;42.51
64402;BME280;50724;42.376;23.768;2023-08-30T08:47:56;92387.53;;;26.61;43.27
64402;BME280;50724;42.376;23.768;2023-08-30T08:50:57;92396.47;;;26.03;45.09
64402;BME280;50724;42.376;23.768;2023-08-30T08:54:02;92399.88;;;26.63;43.45
64402;BME280;50724;42.376;23.768;2023-08-30T08:57:04;92398.84;;;26.15;43.91
64402;BME280;50724;42.376;23.768;2023-08-30T09:00:06;92382.88;;;25.94;44.87
64402;BME280;50724;42.376;23.768;2023-08-30T09:03:07;92387.75;;;25.77;46.04
64402;BME280;50724;42.376;23.768;2023-08-30T09:06:08;92383.44;;;25.07;47.74
64402;BME280;50724;42.376;23.768;2023-08-30T09:09:08;92387.38;;;25.30;47.09
64402;BME280;50724;42.376;23.768;2023-08-30T09:12:09;92393.84;;;25.09;47.84
64402;BME280;50724;42.376;23.768;2023-08-30T09:15:09;92387.34;;;25.50;47.04
64402;BME280;50724;42.376;23.768;2023-08-30T09:18:17;92384.88;;;25.64;46.52
64402;BME280;50724;42.376;23.768;2023-08-30T09:21:18;92380.28;;;25.74;46.14
64402;BME280;50724;42.376;23.768;2023-08-30T09:24:18;92387.91;;;26.11;45.24
64402;BME280;50724;42.376;23.768;2023-08-30T09:27:18;92388.69;;;25.43;46.55
64402;BME280;50724;42.376;23.768;2023-08-30T09:30:22;92382.06;;;25.20;46.85
64402;BME280;50724;42.376;23.768;2023-08-30T09:33:29;92380.56;;;25.68;46.23
64402;BME280;50724;42.376;23.768;2023-08-30T09:36:48;92386.53;;;25.55;46.18
64402;BME280;50724;42.376;23.768;2023-08-30T09:39:50;92380.97;;;25.26;46.63
64402;BME280;50724;42.376;23.768;2023-08-30T09:42:51;92384.69;;;25.30;46.63
64402;BME280;50724;42.376;23.768;2023-08-30T09:45:52;92381.41;;;25.63;46.12
64402;BME280;50724;42.376;23.768;2023-08-30T09:48:55;92378.16;;;25.71;45.12
64402;BME280;50724;42.376;23.768;2023-08-30T09:51:57;92370.00;;;25.91;44.80
64402;BME280;50724;42.376;23.768;2023-08-30T09:55:00;92364.56;;;26.07;44.17
64402;BME280;50724;42.376;23.768;2023-08-30T09:58:04;92365.72;;;26.68;43.64
64402;BME280;50724;42.376;23.768;2023-08-30T10:01:05;92366.78;;;27.29;42.34
64402;BME280;50724;42.376;23.768;2023-08-30T10:04:07;92365.28;;;27.47;40.82
64402;BME280;50724;42.376;23.768;2023-08-30T10:07:09;92369.41;;;28.06;40.64
64402;BME280;50724;42.376;23.768;2023-08-30T10:10:10;92368.38;;;28.39;39.28
64402;BME280;50724;42.376;23.768;2023-08-30T10:13:12;92372.91;;;28.62;38.76
64402;BME280;50724;42.376;23.768;2023-08-30T10:16:19;92351.44;;;28.89;39.00
64402;BME280;50724;42.376;23.768;2023-08-30T10:19:25;92365.28;;;27.89;40.30
64402;BME280;50724;42.376;23.768;2023-08-30T10:22:26;92367.25;;;27.60;40.51
64402;BME280;50724;42.376;23.768;2023-08-30T10:25:27;92357.41;;;28.17;40.13
64402;BME280;50724;42.376;23.768;2023-08-30T10:28:29;92365.84;;;27.86;40.06
64402;BME280;50724;42.376;23.768;2023-08-30T10:31:31;92365.56;;;26.93;41.81
64402;BME280;50724;42.376;23.768;2023-08-30T10:34:32;92364.72;;;26.30;43.82
64402;BME280;50724;42.376;23.768;2023-08-30T10:37:33;92368.75;;;25.79;45.23
64402;BME280;50724;42.376;23.768;2023-08-30T10:40:44;92370.78;;;25.28;46.78
64402;BME280;50724;42.376;23.768;2023-08-30T10:43:50;92361.25;;;24.97;47.34
64402;BME280;50724;42.376;23.768;2023-08-30T10:46:53;92365.00;;;25.01;48.16
64402;BME280;50724;42.376;23.768;2023-08-30T10:49:55;92359.88;;;24.99;47.71
64402;BME280;50724;42.376;23.768;2023-08-30T10:52:55;92359.66;;;24.76;48.65
64402;BME280;50724;42.376;23.768;2023-08-30T10:56:07;92366.63;;;25.76;46.89
64402;BME280;50724;42.376;23.768;2023-08-30T10:59:19;92354.81;;;26.59;43.68
64402;BME280;50724;42.376;23.768;2023-08-30T11:02:19;92346.13;;;27.01;42.50
64402;BME280;50724;42.376;23.768;2023-08-30T11:05:24;92351.31;;;26.93;42.63
64402;BME280;50724;42.376;23.768;2023-08-30T11:08:25;92350.44;;;27.26;42.13
64402;BME280;50724;42.376;23.768;2023-08-30T11:11:27;92354.75;;;27.22;41.41
64402;BME280;50724;42.376;23.768;2023-08-30T11:14:27;92349.03;;;27.34;41.61
64402;BME280;50724;42.376;23.768;2023-08-30T11:17:29;92348.13;;;27.85;39.67
64402;BME280;50724;42.376;23.768;2023-08-30T11:20:29;92349.16;;;27.47;40.50
64402;BME280;50724;42.376;23.768;2023-08-30T11:23:30;92344.22;;;27.78;40.69
64402;BME280;50724;42.376;23.768;2023-08-30T11:26:30;92349.69;;;27.20;41.68
64402;BME280;50724;42.376;23.768;2023-08-30T11:29:31;92336.31;;;27.15;41.77
64402;BME280;50724;42.376;23.768;2023-08-30T11:32:33;92338.53;;;27.08;41.82
64402;BME280;50724;42.376;23.768;2023-08-30T11:35:34;92332.28;;;26.89;41.68
64402;BME280;50724;42.376;23.768;2023-08-30T11:38:34;92334.75;;;26.86;41.68
64402;BME280;50724;42.376;23.768;2023-08-30T11:41:37;92329.97;;;26.78;42.08
64402;BME280;50724;42.376;23.768;2023-08-30T11:44:38;92324.63;;;26.05;43.70
64402;BME280;50724;42.376;23.768;2023-08-30T11:47:39;92325.47;;;26.39;43.14
64402;BME280;50724;42.376;23.768;2023-08-30T11:50:40;92316.88;;;26.71;42.31
64402;BME280;50724;42.376;23.768;2023-08-30T11:53:42;92327.94;;;26.31;42.73
64402;BME280;50724;42.376;23.768;2023-08-30T11:56:43;92328.72;;;26.36;42.51
64402;BME280;50724;42.376;23.768;2023-08-30T11:59:43;92333.97;;;26.51;42.67
64402;BME280;50724;42.376;23.768;2023-08-30T12:02:45;92328.94;;;27.02;40.90
64402;BME280;50724;42.376;23.768;2023-08-30T12:05:47;92335.09;;;27.74;39.96
64402;BME280;50724;42.376;23.768;2023-08-30T12:08:48;92339.38;;;28.17;38.33
64402;BME280;50724;42.376;23.768;2023-08-30T12:11:49;92339.66;;;28.34;37.54
64402;BME280;50724;42.376;23.768;2023-08-30T12:14:54;92340.66;;;27.82;37.74
64402;BME280;50724;42.376;23.768;2023-08-30T12:17:56;92339.31;;;27.61;38.41
64402;BME280;50724;42.376;23.768;2023-08-30T12:20:59;92326.16;;;27.78;37.93
64402;BME280;50724;42.376;23.768;2023-08-30T12:24:00;92322.78;;;28.47;37.75
64402;BME280;50724;42.376;23.768;2023-08-30T12:27:03;92322.03;;;28.42;36.90
64402;BME280;50724;42.376;23.768;2023-08-30T12:30:04;92312.69;;;28.21;36.39
64402;BME280;50724;42.376;23.768;2023-08-30T12:33:06;92306.84;;;28.83;35.81
64402;BME280;50724;42.376;23.768;2023-08-30T12:36:07;92309.34;;;29.25;34.77
64402;BME280;50724;42.376;23.768;2023-08-30T12:39:07;92305.25;;;28.50;35.77
64402;BME280;50724;42.376;23.768;2023-08-30T12:42:08;92300.16;;;28.48;35.50
64402;BME280;50724;42.376;23.768;2023-08-30T12:45:09;92295.38;;;27.89;36.83
64402;BME280;50724;42.376;23.768;2023-08-30T12:48:12;92289.09;;;27.99;36.08
64402;BME280;50724;42.376;23.768;2023-08-30T12:51:15;92286.72;;;27.92;36.14
64402;BME280;50724;42.376;23.768;2023-08-30T12:54:15;92301.25;;;27.31;37.20
64402;BME280;50724;42.376;23.768;2023-08-30T12:57:16;92292.81;;;26.90;38.19
64402;BME280;50724;42.376;23.768;2023-08-30T13:00:16;92297.81;;;27.25;37.74
64402;BME280;50724;42.376;23.768;2023-08-30T13:03:17;92296.34;;;27.14;38.19
64402;BME280;50724;42.376;23.768;2023-08-30T13:06:17;92289.59;;;27.16;38.19
64402;BME280;50724;42.376;23.768;2023-08-30T13:09:18;92296.38;;;27.33;38.14
64402;BME280;50724;42.376;23.768;2023-08-30T13:12:18;92292.03;;;27.98;37.30
64402;BME280;50724;42.376;23.768;2023-08-30T13:15:18;92297.19;;;28.31;37.26
64402;BME280;50724;42.376;23.768;2023-08-30T13:18:19;92298.78;;;27.95;37.12
64402;BME280;50724;42.376;23.768;2023-08-30T13:21:19;92307.25;;;27.46;38.32
64402;BME280;50724;42.376;23.768;2023-08-30T13:24:20;92302.44;;;27.43;37.69
64402;BME280;50724;42.376;23.768;2023-08-30T13:27:29;92296.91;;;27.77;37.80
64402;BME280;50724;42.376;23.768;2023-08-30T13:30:30;92297.72;;;28.15;36.92
64402;BME280;50724;42.376;23.768;2023-08-30T13:33:30;92293.38;;;28.00;36.20
64402;BME280;50724;42.376;23.768;2023-08-30T13:36:31;92301.28;;;28.10;36.66
64402;BME280;50724;42.376;23.768;2023-08-30T13:39:31;92304.84;;;27.45;37.55
64402;BME280;50724;42.376;23.768;2023-08-30T13:42:33;92308.66;;;27.15;38.22
64402;BME280;50724;42.376;23.768;2023-08-30T13:45:33;92297.88;;;27.44;37.91
64402;BME280;50724;42.376;23.768;2023-08-30T13:48:33;92283.31;;;27.87;37.15
64402;BME280;50724;42.376;23.768;2023-08-30T13:51:34;92291.25;;;28.34;36.36
64402;BME280;50724;42.376;23.768;2023-08-30T13:54:34;92298.63;;;28.61;35.38
64402;BME280;50724;42.376;23.768;2023-08-30T13:57:35;92299.09;;;28.31;36.00
64402;BME280;50724;42.376;23.768;2023-08-30T14:00:45;92298.19;;;26.90;38.37
64402;BME280;50724;42.376;23.768;2023-08-30T14:03:45;92288.69;;;27.02;38.69
64402;BME280;50724;42.376;23.768;2023-08-30T14:06:46;92295.44;;;27.66;37.65
64402;BME280;50724;42.376;23.768;2023-08-30T14:09:46;92292.25;;;27.82;36.66
64402;BME280;50724;42.376;23.768;2023-08-30T14:12:46;92289.53;;;28.06;36.73
64402;BME280;50724;42.376;23.768;2023-08-30T14:15:47;92289.28;;;28.53;35.51
64402;BME280;50724;42.376;23.768;2023-08-30T14:18:48;92287.84;;;28.10;36.14
64402;BME280;50724;42.376;23.768;2023-08-30T14:21:48;92289.97;;;28.45;35.73
64402;BME280;50724;42.376;23.768;2023-08-30T14:24:49;92290.16;;;28.17;35.84
64402;BME280;50724;42.376;23.768;2023-08-30T14:27:50;92300.09;;;28.35;35.32
64402;BME280;50724;42.376;23.768;2023-08-30T14:30:52;92292.66;;;28.64;35.37
64402;BME280;50724;42.376;23.768;2023-08-30T14:33:54;92297.53;;;28.62;34.82
64402;BME280;50724;42.376;23.768;2023-08-30T14:36:58;92296.72;;;28.62;34.99
64402;BME280;50724;42.376;23.768;2023-08-30T14:40:02;92295.25;;;28.00;35.96
64402;BME280;50724;42.376;23.768;2023-08-30T14:43:04;92306.81;;;27.34;36.75
64402;BME280;50724;42.376;23.768;2023-08-30T14:46:05;92297.13;;;27.14;37.22
64402;BME280;50724;42.376;23.768;2023-08-30T14:49:06;92305.31;;;27.52;37.06
64402;BME280;50724;42.376;23.768;2023-08-30T14:52:07;92304.81;;;27.68;36.66
64402;BME280;50724;42.376;23.768;2023-08-30T14:55:07;92314.44;;;27.27;36.88
64402;BME280;50724;42.376;23.768;2023-08-30T14:58:08;92314.22;;;27.23;36.90
64402;BME280;50724;42.376;23.768;2023-08-30T15:01:09;92308.88;;;26.95;37.21
64402;BME280;50724;42.376;23.768;2023-08-30T15:04:09;92309.19;;;27.17;37.11
64402;BME280;50724;42.376;23.768;2023-08-30T15:07:10;92310.78;;;26.66;37.88
64402;BME280;50724;42.376;23.768;2023-08-30T15:10:10;92306.53;;;26.59;38.22
64402;BME280;50724;42.376;23.768;2023-08-30T15:13:11;92314.00;;;26.34;39.37
64402;BME280;50724;42.376;23.768;2023-08-30T15:16:11;92305.13;;;26.33;39.23
64402;BME280;50724;42.376;23.768;2023-08-30T15:19:11;92312.91;;;26.63;38.61
64402;BME280;50724;42.376;23.768;2023-08-30T15:22:12;92311.22;;;27.01;38.21
64402;BME280;50724;42.376;23.768;2023-08-30T15:25:12;92311.38;;;26.57;38.69
64402;BME280;50724;42.376;23.768;2023-08-30T15:28:13;92312.88;;;26.69;38.65
64402;BME280;50724;42.376;23.768;2023-08-30T15:31:15;92321.16;;;26.77;38.55
64402;BME280;50724;42.376;23.768;2023-08-30T15:34:19;92319.94;;;26.59;39.00
64402;BME280;50724;42.376;23.768;2023-08-30T15:37:20;92327.06;;;26.74;38.95
64402;BME280;50724;42.376;23.768;2023-08-30T15:40:20;92327.84;;;26.80;38.54
64402;BME280;50724;42.376;23.768;2023-08-30T15:43:22;92326.22;;;26.45;39.22
64402;BME280;50724;42.376;23.768;2023-08-30T15:46:22;92330.66;;;26.59;38.57
64402;BME280;50724;42.376;23.768;2023-08-30T15:49:22;92325.31;;;26.59;38.27
64402;BME280;50724;42.376;23.768;2023-08-30T15:52:23;92326.41;;;26.58;38.33
64402;BME280;50724;42.376;23.768;2023-08-30T15:55:23;92328.34;;;26.82;37.94